createdAt,value
2023-01-07T00:01:41.933Z,98092.69
2023-01-07T00:04:11.964Z,98103.84
2023-01-07T00:06:39.999Z,98109.66
2023-01-07T00:09:08.256Z,98112.00
2023-01-07T00:11:37.470Z,98111.25
2023-01-07T00:14:05.697Z,98106.84
2023-01-07T00:16:34.323Z,98120.69
2023-01-07T00:19:02.461Z,98115.66
2023-01-07T00:21:29.897Z,98112.56
2023-01-07T00:24:01.619Z,98121.28
2023-01-07T00:26:32.658Z,98113.25
2023-01-07T00:29:00.136Z,98102.94
2023-01-07T00:31:32.306Z,98118.03
2023-01-07T00:33:59.375Z,98114.88
2023-01-07T00:36:31.396Z,98117.19
2023-01-07T00:39:30.354Z,98122.66
2023-01-07T00:42:15.157Z,98121.16
2023-01-07T00:44:41.749Z,98120.69
2023-01-07T00:47:08.324Z,98121.81
2023-01-07T00:49:34.953Z,98128.75
2023-01-07T00:52:01.522Z,98120.31
2023-01-07T00:54:28.231Z,98119.38
2023-01-07T00:56:54.766Z,98127.53
2023-01-07T00:59:21.357Z,98123.06
2023-01-07T01:01:47.998Z,98122.75
2023-01-07T01:04:15.165Z,98118.78
2023-01-07T01:06:41.724Z,98120.00
2023-01-07T01:09:08.903Z,98129.69
2023-01-07T01:11:35.460Z,98123.22
2023-01-07T01:14:02.059Z,98131.25
2023-01-07T01:16:28.693Z,98123.09
2023-01-07T01:18:55.273Z,98121.31
2023-01-07T01:21:21.905Z,98121.88
2023-01-07T01:23:48.494Z,98125.38
2023-01-07T01:26:17.246Z,98119.34
2023-01-07T01:28:44.951Z,98125.66
2023-01-07T01:31:11.969Z,98128.84
2023-01-07T01:33:38.780Z,98132.50
2023-01-07T01:36:08.087Z,98140.75
2023-01-07T01:38:34.651Z,98133.53
2023-01-07T01:41:01.364Z,98126.28
2023-01-07T01:43:35.113Z,98123.22
2023-01-07T01:46:34.287Z,98129.19
2023-01-07T01:49:08.085Z,98126.44
2023-01-07T01:51:38.933Z,98135.81
2023-01-07T01:54:08.923Z,98135.72
2023-01-07T01:56:40.748Z,98124.13
2023-01-07T01:59:12.137Z,98133.97
2023-01-07T02:01:39.016Z,98129.28
2023-01-07T02:04:10.562Z,98134.75
2023-01-07T02:06:50.793Z,98138.00
2023-01-07T02:09:17.321Z,98137.16
2023-01-07T02:12:10.533Z,98140.56
2023-01-07T02:15:03.818Z,98133.53
2023-01-07T02:17:59.973Z,98144.16
2023-01-07T02:20:44.893Z,98134.69
2023-01-07T02:23:32.999Z,98140.75
2023-01-07T02:26:37.320Z,98133.63
2023-01-07T02:29:09.659Z,98129.25
2023-01-07T02:32:02.385Z,98132.31
2023-01-07T02:34:43.632Z,98131.69
2023-01-07T02:37:43.771Z,98125.94
2023-01-07T02:40:22.199Z,98124.25
2023-01-07T02:42:57.893Z,98131.31
2023-01-07T02:45:30.468Z,98124.44
2023-01-07T02:48:01.513Z,98125.28
2023-01-07T02:50:28.110Z,98130.78
2023-01-07T02:52:54.697Z,98130.34
2023-01-07T02:55:31.284Z,98136.16
2023-01-07T02:58:19.311Z,98129.50
2023-01-07T03:01:23.234Z,98129.72
2023-01-07T03:04:04.783Z,98129.88
2023-01-07T03:06:46.401Z,98129.78
2023-01-07T03:09:25.053Z,98122.47
2023-01-07T03:12:18.008Z,98125.97
2023-01-07T03:14:48.177Z,98116.50
2023-01-07T03:17:20.539Z,98125.19
2023-01-07T03:19:57.746Z,98114.81
2023-01-07T03:22:28.356Z,98122.78
2023-01-07T03:24:58.087Z,98115.69
2023-01-07T03:27:27.608Z,98121.81
2023-01-07T03:29:56.073Z,98118.50
2023-01-07T03:32:41.195Z,98115.38
2023-01-07T03:35:08.709Z,98115.25
2023-01-07T03:37:35.473Z,98109.13
2023-01-07T03:40:06.597Z,98123.59
2023-01-07T03:42:42.072Z,98118.94
2023-01-07T03:45:17.682Z,98124.31
2023-01-07T03:47:47.907Z,98121.31
2023-01-07T03:50:15.739Z,98123.69
2023-01-07T03:52:42.725Z,98112.66
2023-01-07T03:55:10.745Z,98114.38
2023-01-07T03:57:37.875Z,98115.06
2023-01-07T04:00:06.606Z,98123.34
2023-01-07T04:02:33.374Z,98122.97
2023-01-07T04:04:59.954Z,98133.25
2023-01-07T04:07:26.513Z,98129.00
2023-01-07T04:09:53.034Z,98130.41
2023-01-07T04:12:19.673Z,98142.91
2023-01-07T04:14:46.239Z,98132.16
2023-01-07T04:17:12.800Z,98139.56
2023-01-07T04:19:39.927Z,98136.38
2023-01-07T04:22:07.821Z,98133.63
2023-01-07T04:24:34.417Z,98134.94
2023-01-07T04:27:01.119Z,98139.31
2023-01-07T04:29:27.720Z,98141.75
2023-01-07T04:31:54.320Z,98139.31
2023-01-07T04:34:20.872Z,98130.72
2023-01-07T04:36:47.857Z,98153.81
2023-01-07T04:39:14.732Z,98141.47
2023-01-07T04:41:41.352Z,98149.75
2023-01-07T04:44:08.055Z,98147.84
2023-01-07T04:46:34.740Z,98146.03
2023-01-07T04:49:01.482Z,98143.69
2023-01-07T04:51:28.105Z,98152.34
2023-01-07T04:53:56.556Z,98151.31
2023-01-07T04:56:23.280Z,98151.69
2023-01-07T04:58:49.860Z,98154.53
2023-01-07T05:01:16.519Z,98153.41
2023-01-07T05:03:43.159Z,98153.94
2023-01-07T05:06:10.113Z,98151.25
2023-01-07T05:08:36.669Z,98151.34
2023-01-07T05:11:04.832Z,98150.44
2023-01-07T05:13:32.044Z,98150.53
2023-01-07T05:15:58.525Z,98157.56
2023-01-07T05:18:25.052Z,98163.13
2023-01-07T05:20:51.619Z,98166.44
2023-01-07T05:23:18.163Z,98166.91
2023-01-07T05:25:44.681Z,98158.38
2023-01-07T05:28:12.269Z,98170.69
2023-01-07T05:30:39.550Z,98163.22
2023-01-07T05:33:07.361Z,98159.31
2023-01-07T05:35:34.935Z,98168.75
2023-01-07T05:38:01.533Z,98169.19
2023-01-07T05:40:28.174Z,98163.81
2023-01-07T05:42:54.777Z,98176.00
2023-01-07T05:45:21.887Z,98168.88
2023-01-07T05:47:49.256Z,98173.53
2023-01-07T05:50:15.989Z,98170.94
2023-01-07T05:52:42.559Z,98174.16
2023-01-07T05:55:09.501Z,98167.28
2023-01-07T05:57:36.076Z,98170.09
2023-01-07T06:00:03.170Z,98170.25
2023-01-07T06:02:29.727Z,98162.38
2023-01-07T06:04:56.299Z,98163.88
2023-01-07T06:07:22.877Z,98167.88
2023-01-07T06:09:49.435Z,98168.84
2023-01-07T06:12:16.038Z,98172.34
2023-01-07T06:14:42.637Z,98178.28
2023-01-07T06:17:09.260Z,98178.56
2023-01-07T06:19:35.796Z,98172.97
2023-01-07T06:22:02.395Z,98163.03
2023-01-07T06:24:28.983Z,98176.63
2023-01-07T06:26:55.570Z,98179.81
2023-01-07T06:29:22.138Z,98183.19
2023-01-07T06:31:48.727Z,98171.84
2023-01-07T06:34:15.419Z,98181.41
2023-01-07T06:36:41.948Z,98178.44
2023-01-07T06:39:08.534Z,98176.50
2023-01-07T06:41:35.131Z,98183.94
2023-01-07T06:44:01.706Z,98189.66
2023-01-07T06:46:28.438Z,98193.59
2023-01-07T06:48:55.486Z,98197.22
2023-01-07T06:51:23.290Z,98186.63
2023-01-07T06:53:49.883Z,98192.25
2023-01-07T06:56:16.494Z,98187.56
2023-01-07T06:58:43.066Z,98183.88
2023-01-07T07:01:09.809Z,98180.69
2023-01-07T07:03:36.473Z,98194.47
2023-01-07T07:06:03.344Z,98193.59
2023-01-07T07:08:29.963Z,98191.94
2023-01-07T07:10:56.533Z,98196.72
2023-01-07T07:13:23.096Z,98200.56
2023-01-07T07:15:49.962Z,98193.94
2023-01-07T07:18:18.253Z,98187.78
2023-01-07T07:20:48.444Z,98199.63
2023-01-07T07:23:15.139Z,98204.91
2023-01-07T07:25:42.450Z,98199.03
2023-01-07T07:28:09.053Z,98194.09
2023-01-07T07:30:46.188Z,98191.94
2023-01-07T07:33:15.119Z,98197.66
2023-01-07T07:35:42.051Z,98198.59
2023-01-07T07:38:08.648Z,98186.88
2023-01-07T07:40:35.264Z,98189.38
2023-01-07T07:43:11.051Z,98179.69
2023-01-07T07:45:40.811Z,98194.28
2023-01-07T07:48:08.566Z,98188.03
2023-01-07T07:50:35.817Z,98188.28
2023-01-07T07:53:02.310Z,98190.84
2023-01-07T07:55:28.969Z,98185.19
2023-01-07T07:57:57.288Z,98192.44
2023-01-07T08:00:24.294Z,98185.97
2023-01-07T08:02:51.142Z,98190.31
2023-01-07T08:05:17.941Z,98188.38
2023-01-07T08:07:44.521Z,98189.78
2023-01-07T08:10:11.141Z,98188.38
2023-01-07T08:12:38.800Z,98184.97
2023-01-07T08:15:07.097Z,98189.47
2023-01-07T08:17:34.046Z,98186.75
2023-01-07T08:20:00.643Z,98187.16
2023-01-07T08:22:27.265Z,98182.47
2023-01-07T08:24:53.827Z,98190.13
2023-01-07T08:27:21.087Z,98187.41
2023-01-07T08:29:47.572Z,98187.44
2023-01-07T08:32:14.195Z,98186.34
2023-01-07T08:34:40.789Z,98184.44
2023-01-07T08:37:07.389Z,98188.19
2023-01-07T08:39:33.991Z,98182.38
2023-01-07T08:42:00.608Z,98177.34
2023-01-07T08:44:27.268Z,98178.66
2023-01-07T08:46:54.546Z,98166.44
2023-01-07T08:49:21.119Z,98165.84
2023-01-07T08:51:47.785Z,98169.47
2023-01-07T08:54:14.522Z,98167.84
2023-01-07T08:56:41.133Z,98167.84
2023-01-07T08:59:07.735Z,98163.94
2023-01-07T09:01:34.508Z,98166.47
2023-01-07T09:04:01.066Z,98162.47
2023-01-07T09:06:27.672Z,98149.31
2023-01-07T09:08:54.255Z,98113.09
2023-01-07T09:11:20.875Z,98091.66
2023-01-07T09:13:47.544Z,98090.75
2023-01-07T09:16:14.176Z,98119.38
2023-01-07T09:18:40.807Z,98114.94
2023-01-07T09:21:07.386Z,98105.53
2023-01-07T09:23:34.045Z,98104.53
2023-01-07T09:26:00.667Z,98095.81
2023-01-07T09:28:27.270Z,98096.59
2023-01-07T09:30:56.699Z,98093.00
2023-01-07T09:33:23.779Z,98088.41
2023-01-07T09:35:50.326Z,98087.28
2023-01-07T09:38:16.869Z,98085.69
2023-01-07T09:40:45.165Z,98078.03
2023-01-07T09:43:17.898Z,98082.00
2023-01-07T09:45:49.548Z,98079.16
2023-01-07T09:48:30.203Z,98072.88
2023-01-07T09:51:06.019Z,98073.84
2023-01-07T09:53:50.252Z,98069.47
2023-01-07T09:56:25.119Z,98063.94
2023-01-07T09:58:51.957Z,98052.88
2023-01-07T10:01:25.138Z,98054.28
2023-01-07T10:04:16.108Z,98044.00
2023-01-07T10:07:00.397Z,98037.47
2023-01-07T10:09:57.896Z,98040.84
2023-01-07T10:12:42.711Z,98035.69
2023-01-07T10:15:27.228Z,98027.22
2023-01-07T10:17:59.844Z,98032.81
2023-01-07T10:20:52.668Z,98026.88
2023-01-07T10:23:51.800Z,98012.00
2023-01-07T10:26:38.631Z,98010.31
2023-01-07T10:29:12.358Z,98003.63
2023-01-07T10:31:39.796Z,98002.34
2023-01-07T10:34:14.423Z,97996.78
2023-01-07T10:37:00.838Z,97987.72
2023-01-07T10:39:50.777Z,97982.03
2023-01-07T10:42:29.863Z,97983.97
2023-01-07T10:45:40.811Z,97981.84
2023-01-07T10:48:22.784Z,97973.25
2023-01-07T10:51:02.389Z,97958.50
2023-01-07T10:53:31.861Z,97954.22
2023-01-07T10:56:20.392Z,97949.78
2023-01-07T10:58:49.318Z,97941.44
2023-01-07T11:01:22.896Z,97940.13
2023-01-07T11:03:55.235Z,97933.72
2023-01-07T11:06:36.554Z,97923.59
2023-01-07T11:09:07.887Z,97924.47
2023-01-07T11:11:35.363Z,97910.84
2023-01-07T11:14:12.933Z,97911.03
2023-01-07T11:17:06.310Z,97901.38
2023-01-07T11:19:45.883Z,97890.56
2023-01-07T11:22:34.046Z,97891.53
2023-01-07T11:25:02.476Z,97878.81
2023-01-07T11:27:32.298Z,97877.78
2023-01-07T11:30:37.937Z,97869.91
2023-01-07T11:33:13.855Z,97864.09
2023-01-07T11:35:51.513Z,97864.78
2023-01-07T11:38:44.570Z,97852.81
2023-01-07T11:41:26.188Z,97854.13
2023-01-07T11:43:54.668Z,97846.75
2023-01-07T11:46:25.866Z,97849.38
2023-01-07T11:49:01.050Z,97839.88
2023-01-07T11:51:39.796Z,97833.81
2023-01-07T11:54:21.926Z,97832.66
2023-01-07T11:56:48.636Z,97838.53
2023-01-07T11:59:26.768Z,97821.94
2023-01-07T12:01:57.053Z,97822.22
2023-01-07T12:04:28.712Z,97811.53
2023-01-07T12:07:01.921Z,97809.50
2023-01-07T12:09:31.461Z,97814.13
2023-01-07T12:12:34.533Z,97806.03
2023-01-07T12:15:05.225Z,97809.66
2023-01-07T12:17:35.239Z,97802.94
2023-01-07T12:20:28.027Z,97799.25
2023-01-07T12:22:58.434Z,97793.50
2023-01-07T12:25:46.814Z,97794.59
2023-01-07T12:28:19.747Z,97794.94
2023-01-07T12:30:52.204Z,97794.00
2023-01-07T12:33:38.996Z,97790.75
2023-01-07T12:36:15.744Z,97793.53
2023-01-07T12:38:49.580Z,97788.56
2023-01-07T12:41:27.239Z,97771.38
2023-01-07T12:44:09.543Z,97779.84
2023-01-07T12:46:41.820Z,97776.72
2023-01-07T12:49:34.703Z,97765.34
2023-01-07T12:52:12.016Z,97778.25
2023-01-07T12:54:54.566Z,97764.84
2023-01-07T12:57:38.001Z,97762.53
2023-01-07T13:00:42.112Z,97762.78
2023-01-07T13:03:45.710Z,97761.75
2023-01-07T13:06:22.113Z,97766.47
2023-01-07T13:08:58.851Z,97749.00
2023-01-07T13:11:52.984Z,97763.56
2023-01-07T13:14:26.057Z,97752.31
2023-01-07T13:16:56.094Z,97753.31
2023-01-07T13:19:22.737Z,97751.41
2023-01-07T13:21:50.219Z,97754.78
2023-01-07T13:24:56.281Z,97751.09
2023-01-07T13:27:50.802Z,97749.84
2023-01-07T13:30:27.713Z,97742.53
2023-01-07T13:33:05.500Z,97743.66
2023-01-07T13:35:42.601Z,97739.06
2023-01-07T13:38:40.002Z,97738.59
2023-01-07T13:41:59.275Z,97740.94
2023-01-07T13:44:54.802Z,97726.44
2023-01-07T13:47:25.591Z,97726.03
2023-01-07T13:50:01.667Z,97729.63
2023-01-07T13:52:31.711Z,97721.63
2023-01-07T13:55:22.480Z,97720.50
2023-01-07T13:57:49.097Z,97716.13
2023-01-07T14:00:39.463Z,97710.84
2023-01-07T14:03:53.515Z,97719.06
2023-01-07T14:06:20.338Z,97715.47
2023-01-07T14:08:50.675Z,97714.19
2023-01-07T14:11:42.272Z,97718.88
2023-01-07T14:14:26.935Z,97715.41
2023-01-07T14:16:59.213Z,97720.72
2023-01-07T14:19:53.832Z,97716.72
2023-01-07T14:22:20.301Z,97722.78
2023-01-07T14:24:55.866Z,97728.13
2023-01-07T14:27:47.196Z,97725.81
2023-01-07T14:30:51.156Z,97726.41
2023-01-07T14:33:19.507Z,97736.78
2023-01-07T14:35:56.433Z,97744.94
2023-01-07T14:38:32.237Z,97741.31
2023-01-07T14:41:05.867Z,97742.81
2023-01-07T14:43:46.027Z,97742.81
2023-01-07T14:46:24.829Z,97745.00
2023-01-07T14:49:03.633Z,97741.50
2023-01-07T14:52:01.846Z,97746.16
2023-01-07T14:54:59.544Z,97743.38
2023-01-07T14:57:44.233Z,97740.03
2023-01-07T15:00:54.877Z,97746.00
2023-01-07T15:03:24.697Z,97747.94
2023-01-07T15:06:09.846Z,97753.94
2023-01-07T15:09:12.726Z,97748.19
2023-01-07T15:12:00.526Z,97748.75
2023-01-07T15:14:49.056Z,97739.94
2023-01-07T15:17:16.903Z,97741.44
2023-01-07T15:19:44.382Z,97737.75
2023-01-07T15:22:25.939Z,97745.28
2023-01-07T15:25:09.380Z,97741.25
2023-01-07T15:27:50.796Z,97745.34
2023-01-07T15:30:32.585Z,97743.09
2023-01-07T15:33:20.707Z,97747.28
2023-01-07T15:35:47.521Z,97750.56
2023-01-07T15:38:27.649Z,97747.81
2023-01-07T15:40:56.533Z,97753.03
2023-01-07T15:43:26.768Z,97753.78
2023-01-07T15:46:08.056Z,97755.38
2023-01-07T15:48:34.646Z,97755.06
2023-01-07T15:51:01.303Z,97758.66
2023-01-07T15:53:29.597Z,97765.16
2023-01-07T15:56:02.045Z,97761.25
2023-01-07T15:58:44.970Z,97767.28
2023-01-07T16:01:17.362Z,97755.09
2023-01-07T16:03:44.777Z,97767.16
2023-01-07T16:06:26.517Z,97768.19
2023-01-07T16:08:53.240Z,97761.19
2023-01-07T16:11:25.873Z,97766.84
2023-01-07T16:13:57.506Z,97757.34
2023-01-07T16:16:25.034Z,97774.00
2023-01-07T16:18:59.717Z,97770.81
2023-01-07T16:21:35.239Z,97767.25
2023-01-07T16:24:01.928Z,97766.50
2023-01-07T16:26:37.615Z,97761.72
2023-01-07T16:29:16.783Z,97767.69
2023-01-07T16:31:44.054Z,97769.69
2023-01-07T16:34:33.824Z,97770.06
2023-01-07T16:37:02.627Z,97777.66
2023-01-07T16:39:39.299Z,97774.09
2023-01-07T16:42:23.007Z,97774.50
2023-01-07T16:44:52.645Z,97780.44
2023-01-07T16:47:24.845Z,97786.78
2023-01-07T16:49:57.120Z,97785.22
2023-01-07T16:52:31.590Z,97785.66
2023-01-07T16:54:58.259Z,97784.06
2023-01-07T16:57:30.644Z,97793.16
2023-01-07T16:59:58.995Z,97792.38
2023-01-07T17:02:32.721Z,97795.56
2023-01-07T17:05:22.846Z,97794.75
2023-01-07T17:07:54.887Z,97797.13
2023-01-07T17:10:27.416Z,97789.97
2023-01-07T17:13:15.759Z,97797.88
2023-01-07T17:15:43.689Z,97801.84
2023-01-07T17:18:13.093Z,97805.78
2023-01-07T17:20:51.837Z,97808.13
2023-01-07T17:23:27.620Z,97805.72
2023-01-07T17:26:03.468Z,97808.91
2023-01-07T17:28:32.983Z,97800.88
2023-01-07T17:31:00.845Z,97815.81
2023-01-07T17:33:27.715Z,97809.53
2023-01-07T17:35:54.422Z,97807.97
2023-01-07T17:38:21.127Z,97808.78
2023-01-07T17:40:48.195Z,97818.28
2023-01-07T17:43:35.387Z,97805.59
2023-01-07T17:46:06.181Z,97824.63
2023-01-07T17:48:33.398Z,97815.94
2023-01-07T17:51:01.365Z,97812.75
2023-01-07T17:53:34.057Z,97820.72
2023-01-07T17:56:01.848Z,97817.53
2023-01-07T17:58:33.691Z,97821.06
2023-01-07T18:01:02.684Z,97825.03
2023-01-07T18:03:29.445Z,97830.53
2023-01-07T18:05:56.048Z,97838.38
2023-01-07T18:08:22.604Z,97829.63
2023-01-07T18:11:10.261Z,97829.16
2023-01-07T18:13:36.885Z,97839.41
2023-01-07T18:16:03.692Z,97842.16
2023-01-07T18:18:30.307Z,97838.59
2023-01-07T18:20:58.158Z,97829.16
2023-01-07T18:23:25.052Z,97837.88
2023-01-07T18:25:51.632Z,97837.06
2023-01-07T18:28:18.159Z,97842.56
2023-01-07T18:30:44.720Z,97827.09
2023-01-07T18:33:11.860Z,97830.63
2023-01-07T18:35:41.720Z,97840.88
2023-01-07T18:38:13.323Z,97842.00
2023-01-07T18:40:40.166Z,97852.66
2023-01-07T18:43:07.367Z,97833.25
2023-01-07T18:45:33.837Z,97839.19
2023-01-07T18:48:00.408Z,97843.88
2023-01-07T18:50:27.099Z,97841.44
2023-01-07T18:52:53.678Z,97846.97
2023-01-07T18:55:21.029Z,97840.72
2023-01-07T18:57:47.671Z,97839.25
2023-01-07T19:00:15.735Z,97842.34
2023-01-07T19:02:42.330Z,97845.53
2023-01-07T19:05:09.015Z,97842.69
2023-01-07T19:07:36.215Z,97850.97
2023-01-07T19:10:04.788Z,97845.44
2023-01-07T19:12:31.387Z,97845.84
2023-01-07T19:14:57.956Z,97852.44
2023-01-07T19:17:24.599Z,97844.38
2023-01-07T19:19:51.871Z,97843.13
2023-01-07T19:22:18.506Z,97845.50
2023-01-07T19:24:45.132Z,97849.88
2023-01-07T19:27:12.064Z,97851.47
2023-01-07T19:29:38.670Z,97845.16
2023-01-07T19:32:05.636Z,97857.34
2023-01-07T19:34:32.247Z,97849.78
2023-01-07T19:36:58.748Z,97843.03
2023-01-07T19:39:25.334Z,97850.53
2023-01-07T19:41:52.030Z,97849.38
2023-01-07T19:44:18.701Z,97852.94
2023-01-07T19:46:45.228Z,97859.97
2023-01-07T19:49:13.457Z,97853.66
2023-01-07T19:51:41.979Z,97849.84
2023-01-07T19:54:11.824Z,97858.16
2023-01-07T19:56:40.195Z,97858.66
2023-01-07T19:59:07.060Z,97861.41
2023-01-07T20:01:33.877Z,97860.59
2023-01-07T20:04:01.001Z,97853.53
2023-01-07T20:06:29.953Z,97857.97
2023-01-07T20:08:58.535Z,97867.88
2023-01-07T20:11:25.397Z,97863.16
2023-01-07T20:13:52.055Z,97864.22
2023-01-07T20:16:23.449Z,97862.16
2023-01-07T20:18:52.608Z,97850.13
2023-01-07T20:21:21.897Z,97850.59
2023-01-07T20:23:49.062Z,97857.63
2023-01-07T20:26:18.638Z,97866.34
2023-01-07T20:28:45.663Z,97865.66
2023-01-07T20:31:14.644Z,97867.31
2023-01-07T20:33:42.402Z,97870.44
2023-01-07T20:36:11.915Z,97876.81
2023-01-07T20:38:39.505Z,97874.38
2023-01-07T20:41:08.360Z,97875.88
2023-01-07T20:43:36.115Z,97870.88
2023-01-07T20:46:04.671Z,97884.78
2023-01-07T20:48:31.874Z,97880.09
2023-01-07T20:50:58.724Z,97879.66
2023-01-07T20:53:28.487Z,97880.66
2023-01-07T20:55:59.541Z,97886.19
2023-01-07T20:58:29.727Z,97885.34
2023-01-07T21:00:56.468Z,97871.91
2023-01-07T21:03:23.176Z,97888.16
2023-01-07T21:05:49.843Z,97888.09
2023-01-07T21:08:16.429Z,97887.69
2023-01-07T21:10:43.784Z,97887.69
2023-01-07T21:13:10.356Z,97890.03
2023-01-07T21:15:38.532Z,97889.94
2023-01-07T21:18:05.128Z,97889.81
2023-01-07T21:20:31.883Z,97890.63
2023-01-07T21:22:58.519Z,97900.97
2023-01-07T21:25:25.068Z,97900.25
2023-01-07T21:27:51.740Z,97897.47
2023-01-07T21:30:19.401Z,97890.59
2023-01-07T21:32:47.291Z,97898.22
2023-01-07T21:35:14.763Z,97894.22
2023-01-07T21:37:41.387Z,97883.53
2023-01-07T21:40:08.501Z,97891.00
2023-01-07T21:42:36.466Z,97899.22
2023-01-07T21:45:03.351Z,97898.44
2023-01-07T21:47:30.117Z,97891.84
2023-01-07T21:49:56.928Z,97890.59
2023-01-07T21:52:23.611Z,97891.44
2023-01-07T21:54:51.926Z,97893.44
2023-01-07T21:57:19.620Z,97890.38
2023-01-07T21:59:46.371Z,97887.28
2023-01-07T22:02:13.795Z,97888.50
2023-01-07T22:04:40.895Z,97888.50
2023-01-07T22:07:14.081Z,97885.28
2023-01-07T22:09:40.848Z,97893.94
2023-01-07T22:12:08.710Z,97888.63
2023-01-07T22:14:35.268Z,97880.47
2023-01-07T22:17:01.969Z,97891.06
2023-01-07T22:19:28.703Z,97885.94
2023-01-07T22:21:55.424Z,97884.31
2023-01-07T22:24:22.117Z,97892.97
2023-01-07T22:26:48.804Z,97887.41
2023-01-07T22:29:16.413Z,97895.69
2023-01-07T22:31:43.130Z,97880.94
2023-01-07T22:34:10.332Z,97879.03
2023-01-07T22:36:42.224Z,97882.16
2023-01-07T22:39:18.119Z,97873.88
2023-01-07T22:41:45.949Z,97862.03
2023-01-07T22:44:22.075Z,97864.25
2023-01-07T22:46:50.965Z,97868.53
2023-01-07T22:49:18.899Z,97868.91
2023-01-07T22:51:48.389Z,97870.53
2023-01-07T22:54:16.283Z,97869.34
2023-01-07T22:56:44.208Z,97877.63
2023-01-07T22:59:10.812Z,97867.31
2023-01-07T23:01:38.249Z,97864.94
2023-01-07T23:04:05.272Z,97863.59
2023-01-07T23:06:31.926Z,97859.91
2023-01-07T23:08:58.610Z,97867.84
2023-01-07T23:11:43.808Z,97860.84
2023-01-07T23:14:10.486Z,97864.03
2023-01-07T23:16:37.644Z,97861.38
2023-01-07T23:19:04.490Z,97859.78
2023-01-07T23:21:34.358Z,97858.34
2023-01-07T23:24:01.029Z,97854.06
2023-01-07T23:26:27.588Z,97859.84
2023-01-07T23:28:54.476Z,97856.13
2023-01-07T23:31:21.175Z,97860.34
2023-01-07T23:33:47.807Z,97859.19
2023-01-07T23:36:14.436Z,97858.44
2023-01-07T23:38:41.032Z,97854.13
2023-01-07T23:41:09.517Z,97856.53
2023-01-07T23:43:36.555Z,97858.88
2023-01-07T23:46:05.931Z,97861.63
2023-01-07T23:48:34.919Z,97858.16
2023-01-07T23:51:13.813Z,97860.78
2023-01-07T23:53:40.714Z,97850.03
2023-01-07T23:56:08.197Z,97854.78
2023-01-07T23:58:35.663Z,97858.91
